sensor_id;sensor_type;location;lat;lon;timestamp;temperature;humidity
37460;DHT22;23318;50.966;5.284;2023-04-01T00:01:40;9.40;99.90
37460;DHT22;23318;50.966;5.284;2023-04-01T00:04:06;9.40;99.90
37460;DHT22;23318;50.966;5.284;2023-04-01T00:06:32;9.40;99.90
37460;DHT22;23318;50.966;5.284;2023-04-01T00:08:57;9.40;99.90
37460;DHT22;23318;50.966;5.284;2023-04-01T00:11:23;9.40;99.90
37460;DHT22;23318;50.966;5.284;2023-04-01T00:13:49;9.30;99.90
37460;DHT22;23318;50.966;5.284;2023-04-01T00:16:15;9.30;99.90
37460;DHT22;23318;50.966;5.284;2023-04-01T00:18:41;9.30;99.90
37460;DHT22;23318;50.966;5.284;2023-04-01T00:21:07;9.30;99.90
37460;DHT22;23318;50.966;5.284;2023-04-01T00:23:33;9.30;99.90
37460;DHT22;23318;50.966;5.284;2023-04-01T00:26:01;9.30;99.90
37460;DHT22;23318;50.966;5.284;2023-04-01T00:28:28;9.30;99.90
37460;DHT22;23318;50.966;5.284;2023-04-01T00:30:54;9.30;99.90
37460;DHT22;23318;50.966;5.284;2023-04-01T00:33:20;9.30;99.90
37460;DHT22;23318;50.966;5.284;2023-04-01T00:35:46;9.30;99.90
37460;DHT22;23318;50.966;5.284;2023-04-01T00:38:12;9.30;99.90
37460;DHT22;23318;50.966;5.284;2023-04-01T00:40:41;9.30;99.90
37460;DHT22;23318;50.966;5.284;2023-04-01T00:43:19;9.30;99.90
37460;DHT22;23318;50.966;5.284;2023-04-01T00:45:47;9.30;99.90
37460;DHT22;23318;50.966;5.284;2023-04-01T00:48:17;9.30;99.90
37460;DHT22;23318;50.966;5.284;2023-04-01T00:53:25;9.40;99.90
37460;DHT22;23318;50.966;5.284;2023-04-01T00:56:13;9.30;99.90
37460;DHT22;23318;50.966;5.284;2023-04-01T00:58:52;9.30;99.90
37460;DHT22;23318;50.966;5.284;2023-04-01T01:01:21;9.40;99.90
37460;DHT22;23318;50.966;5.284;2023-04-01T01:03:46;9.30;99.90
37460;DHT22;23318;50.966;5.284;2023-04-01T01:06:38;9.30;99.90
37460;DHT22;23318;50.966;5.284;2023-04-01T01:09:25;9.30;99.90
37460;DHT22;23318;50.966;5.284;2023-04-01T01:15:09;9.30;99.90
37460;DHT22;23318;50.966;5.284;2023-04-01T01:17:44;9.40;99.90
37460;DHT22;23318;50.966;5.284;2023-04-01T01:26:43;9.40;99.90
37460;DHT22;23318;50.966;5.284;2023-04-01T01:35:36;9.40;99.90
37460;DHT22;23318;50.966;5.284;2023-04-01T01:38:07;9.40;99.90
37460;DHT22;23318;50.966;5.284;2023-04-01T01:40:36;9.30;99.90
37460;DHT22;23318;50.966;5.284;2023-04-01T01:43:10;9.30;99.90
37460;DHT22;23318;50.966;5.284;2023-04-01T01:45:38;9.30;99.90
37460;DHT22;23318;50.966;5.284;2023-04-01T01:48:07;9.30;99.90
37460;DHT22;23318;50.966;5.284;2023-04-01T01:50:35;9.30;99.90
37460;DHT22;23318;50.966;5.284;2023-04-01T01:53:07;9.30;99.90
37460;DHT22;23318;50.966;5.284;2023-04-01T01:55:36;9.30;99.90
37460;DHT22;23318;50.966;5.284;2023-04-01T02:00:43;9.30;99.90
37460;DHT22;23318;50.966;5.284;2023-04-01T02:03:12;9.30;99.90
37460;DHT22;23318;50.966;5.284;2023-04-01T02:05:39;9.30;99.90
37460;DHT22;23318;50.966;5.284;2023-04-01T02:08:17;9.30;99.90
37460;DHT22;23318;50.966;5.284;2023-04-01T02:10:52;9.40;99.90
37460;DHT22;23318;50.966;5.284;2023-04-01T02:13:51;9.40;99.90
37460;DHT22;23318;50.966;5.284;2023-04-01T02:16:31;9.40;99.90
37460;DHT22;23318;50.966;5.284;2023-04-01T02:18:58;9.40;99.90
37460;DHT22;23318;50.966;5.284;2023-04-01T02:21:29;9.40;99.90
37460;DHT22;23318;50.966;5.284;2023-04-01T02:23:58;9.40;99.90
37460;DHT22;23318;50.966;5.284;2023-04-01T02:26:25;9.30;99.90
37460;DHT22;23318;50.966;5.284;2023-04-01T02:28:53;9.40;99.90
37460;DHT22;23318;50.966;5.284;2023-04-01T02:31:20;9.30;99.90
37460;DHT22;23318;50.966;5.284;2023-04-01T02:33:47;9.30;99.90
37460;DHT22;23318;50.966;5.284;2023-04-01T02:36:14;9.40;99.90
37460;DHT22;23318;50.966;5.284;2023-04-01T02:38:41;9.40;99.90
37460;DHT22;23318;50.966;5.284;2023-04-01T02:41:08;9.40;99.90
37460;DHT22;23318;50.966;5.284;2023-04-01T02:43:34;9.40;99.90
37460;DHT22;23318;50.966;5.284;2023-04-01T02:46:00;9.40;99.90
37460;DHT22;23318;50.966;5.284;2023-04-01T02:48:27;9.30;99.90
37460;DHT22;23318;50.966;5.284;2023-04-01T02:50:53;9.40;99.90
37460;DHT22;23318;50.966;5.284;2023-04-01T02:53:18;9.40;99.90
37460;DHT22;23318;50.966;5.284;2023-04-01T02:55:44;9.40;99.90
37460;DHT22;23318;50.966;5.284;2023-04-01T02:58:10;9.40;99.90
37460;DHT22;23318;50.966;5.284;2023-04-01T03:00:36;9.40;99.90
37460;DHT22;23318;50.966;5.284;2023-04-01T03:03:02;9.40;99.90
37460;DHT22;23318;50.966;5.284;2023-04-01T03:05:28;9.40;99.90
37460;DHT22;23318;50.966;5.284;2023-04-01T03:07:54;9.40;99.90
37460;DHT22;23318;50.966;5.284;2023-04-01T03:10:20;9.40;99.90
37460;DHT22;23318;50.966;5.284;2023-04-01T03:12:47;9.40;99.90
37460;DHT22;23318;50.966;5.284;2023-04-01T03:15:13;9.20;99.90
37460;DHT22;23318;50.966;5.284;2023-04-01T03:17:41;9.30;99.90
37460;DHT22;23318;50.966;5.284;2023-04-01T03:20:08;9.30;99.90
37460;DHT22;23318;50.966;5.284;2023-04-01T03:22:34;9.20;99.90
37460;DHT22;23318;50.966;5.284;2023-04-01T03:25:01;9.30;99.90
37460;DHT22;23318;50.966;5.284;2023-04-01T03:27:28;9.30;99.90
37460;DHT22;23318;50.966;5.284;2023-04-01T03:29:53;9.30;99.90
37460;DHT22;23318;50.966;5.284;2023-04-01T03:32:19;9.30;99.90
37460;DHT22;23318;50.966;5.284;2023-04-01T03:34:45;9.20;99.90
37460;DHT22;23318;50.966;5.284;2023-04-01T03:37:11;9.30;99.90
37460;DHT22;23318;50.966;5.284;2023-04-01T03:39:36;9.20;99.90
37460;DHT22;23318;50.966;5.284;2023-04-01T03:42:02;9.20;99.90
37460;DHT22;23318;50.966;5.284;2023-04-01T03:44:34;9.20;99.90
37460;DHT22;23318;50.966;5.284;2023-04-01T03:47:00;9.20;99.90
37460;DHT22;23318;50.966;5.284;2023-04-01T03:49:26;9.20;99.90
37460;DHT22;23318;50.966;5.284;2023-04-01T03:51:52;9.20;99.90
37460;DHT22;23318;50.966;5.284;2023-04-01T03:54:18;9.20;99.90
37460;DHT22;23318;50.966;5.284;2023-04-01T03:56:46;9.20;99.90
37460;DHT22;23318;50.966;5.284;2023-04-01T03:59:12;9.20;99.90
37460;DHT22;23318;50.966;5.284;2023-04-01T04:01:37;9.20;99.90
37460;DHT22;23318;50.966;5.284;2023-04-01T04:04:03;9.20;99.90
37460;DHT22;23318;50.966;5.284;2023-04-01T04:06:30;9.20;99.90
37460;DHT22;23318;50.966;5.284;2023-04-01T04:08:55;9.20;99.90
37460;DHT22;23318;50.966;5.284;2023-04-01T04:11:22;9.20;99.90
37460;DHT22;23318;50.966;5.284;2023-04-01T04:13:48;9.20;99.90
37460;DHT22;23318;50.966;5.284;2023-04-01T04:16:16;9.20;99.90
37460;DHT22;23318;50.966;5.284;2023-04-01T04:18:42;9.20;99.90
37460;DHT22;23318;50.966;5.284;2023-04-01T04:21:14;9.20;99.90
37460;DHT22;23318;50.966;5.284;2023-04-01T04:23:41;9.20;99.90
37460;DHT22;23318;50.966;5.284;2023-04-01T04:26:09;9.10;99.90
37460;DHT22;23318;50.966;5.284;2023-04-01T04:28:35;9.20;99.90
37460;DHT22;23318;50.966;5.284;2023-04-01T04:31:01;9.10;99.90
37460;DHT22;23318;50.966;5.284;2023-04-01T04:33:27;9.20;99.90
37460;DHT22;23318;50.966;5.284;2023-04-01T04:35:56;9.20;99.90
37460;DHT22;23318;50.966;5.284;2023-04-01T04:38:22;9.20;99.90
37460;DHT22;23318;50.966;5.284;2023-04-01T04:40:48;9.20;99.90
37460;DHT22;23318;50.966;5.284;2023-04-01T04:43:15;9.10;99.90
37460;DHT22;23318;50.966;5.284;2023-04-01T04:45:41;9.10;99.90
37460;DHT22;23318;50.966;5.284;2023-04-01T04:48:12;9.10;99.90
37460;DHT22;23318;50.966;5.284;2023-04-01T04:50:44;9.00;99.90
37460;DHT22;23318;50.966;5.284;2023-04-01T04:53:11;9.10;99.90
37460;DHT22;23318;50.966;5.284;2023-04-01T04:55:37;9.10;99.90
37460;DHT22;23318;50.966;5.284;2023-04-01T04:58:03;9.10;99.90
37460;DHT22;23318;50.966;5.284;2023-04-01T05:00:28;9.00;99.90
37460;DHT22;23318;50.966;5.284;2023-04-01T05:02:54;9.00;99.90
37460;DHT22;23318;50.966;5.284;2023-04-01T05:05:20;9.00;99.90
37460;DHT22;23318;50.966;5.284;2023-04-01T05:07:46;9.10;99.90
37460;DHT22;23318;50.966;5.284;2023-04-01T05:10:12;9.00;99.90
37460;DHT22;23318;50.966;5.284;2023-04-01T05:12:37;9.00;99.90
37460;DHT22;23318;50.966;5.284;2023-04-01T05:15:07;9.00;99.90
37460;DHT22;23318;50.966;5.284;2023-04-01T05:17:33;9.00;99.90
37460;DHT22;23318;50.966;5.284;2023-04-01T05:19:59;9.00;99.90
37460;DHT22;23318;50.966;5.284;2023-04-01T05:22:25;9.10;99.90
37460;DHT22;23318;50.966;5.284;2023-04-01T05:24:51;9.00;99.90
37460;DHT22;23318;50.966;5.284;2023-04-01T05:27:17;9.00;99.90
37460;DHT22;23318;50.966;5.284;2023-04-01T05:29:43;9.00;99.90
37460;DHT22;23318;50.966;5.284;2023-04-01T05:32:08;9.00;99.90
37460;DHT22;23318;50.966;5.284;2023-04-01T05:34:34;9.00;99.90
37460;DHT22;23318;50.966;5.284;2023-04-01T05:37:00;9.00;99.90
37460;DHT22;23318;50.966;5.284;2023-04-01T05:39:26;9.00;99.90
37460;DHT22;23318;50.966;5.284;2023-04-01T05:41:51;9.10;99.90
37460;DHT22;23318;50.966;5.284;2023-04-01T05:44:17;9.10;99.90
37460;DHT22;23318;50.966;5.284;2023-04-01T05:46:43;9.10;99.90
37460;DHT22;23318;50.966;5.284;2023-04-01T05:49:09;9.10;99.90
37460;DHT22;23318;50.966;5.284;2023-04-01T05:51:34;9.10;99.90
37460;DHT22;23318;50.966;5.284;2023-04-01T05:54:00;9.10;99.90
37460;DHT22;23318;50.966;5.284;2023-04-01T05:56:26;9.10;99.90
37460;DHT22;23318;50.966;5.284;2023-04-01T05:58:53;9.10;99.90
37460;DHT22;23318;50.966;5.284;2023-04-01T06:01:19;9.10;99.90
37460;DHT22;23318;50.966;5.284;2023-04-01T06:03:45;9.10;99.90
37460;DHT22;23318;50.966;5.284;2023-04-01T06:06:27;9.10;99.90
37460;DHT22;23318;50.966;5.284;2023-04-01T06:08:56;9.10;99.90
37460;DHT22;23318;50.966;5.284;2023-04-01T06:22:12;9.10;99.90
37460;DHT22;23318;50.966;5.284;2023-04-01T06:48:05;9.10;99.90
37460;DHT22;23318;50.966;5.284;2023-04-01T06:53:42;9.20;99.90
37460;DHT22;23318;50.966;5.284;2023-04-01T06:56:18;9.10;99.90
37460;DHT22;23318;50.966;5.284;2023-04-01T06:59:15;9.10;99.90
37460;DHT22;23318;50.966;5.284;2023-04-01T07:01:51;9.10;99.90
37460;DHT22;23318;50.966;5.284;2023-04-01T07:04:40;9.10;99.90
37460;DHT22;23318;50.966;5.284;2023-04-01T07:07:24;9.10;99.90
37460;DHT22;23318;50.966;5.284;2023-04-01T07:09:55;9.10;99.90
37460;DHT22;23318;50.966;5.284;2023-04-01T07:12:53;9.10;99.90
37460;DHT22;23318;50.966;5.284;2023-04-01T07:15:24;9.10;99.90
37460;DHT22;23318;50.966;5.284;2023-04-01T07:18:03;9.10;99.90
37460;DHT22;23318;50.966;5.284;2023-04-01T07:20:32;9.20;99.90
37460;DHT22;23318;50.966;5.284;2023-04-01T07:23:07;9.30;99.90
37460;DHT22;23318;50.966;5.284;2023-04-01T07:25:43;9.20;99.90
37460;DHT22;23318;50.966;5.284;2023-04-01T07:28:14;9.20;99.90
37460;DHT22;23318;50.966;5.284;2023-04-01T07:30:58;9.20;99.90
37460;DHT22;23318;50.966;5.284;2023-04-01T07:36:24;9.30;99.90
37460;DHT22;23318;50.966;5.284;2023-04-01T07:49:55;9.40;99.90
37460;DHT22;23318;50.966;5.284;2023-04-01T07:55:20;9.30;99.90
37460;DHT22;23318;50.966;5.284;2023-04-01T07:58:06;9.30;99.90
37460;DHT22;23318;50.966;5.284;2023-04-01T08:00:58;9.30;99.90
37460;DHT22;23318;50.966;5.284;2023-04-01T08:09:21;9.20;99.90
37460;DHT22;23318;50.966;5.284;2023-04-01T08:21:03;9.20;99.90
37460;DHT22;23318;50.966;5.284;2023-04-01T08:23:37;9.20;99.90
37460;DHT22;23318;50.966;5.284;2023-04-01T08:26:39;9.20;99.90
37460;DHT22;23318;50.966;5.284;2023-04-01T08:29:18;9.20;99.90
37460;DHT22;23318;50.966;5.284;2023-04-01T08:31:54;9.20;99.90
37460;DHT22;23318;50.966;5.284;2023-04-01T08:34:25;9.20;99.90
37460;DHT22;23318;50.966;5.284;2023-04-01T08:36:59;9.30;99.90
37460;DHT22;23318;50.966;5.284;2023-04-01T08:39:34;9.30;99.90
37460;DHT22;23318;50.966;5.284;2023-04-01T08:42:25;9.20;99.90
37460;DHT22;23318;50.966;5.284;2023-04-01T08:45:16;9.30;99.90
37460;DHT22;23318;50.966;5.284;2023-04-01T08:51:14;9.40;99.90
37460;DHT22;23318;50.966;5.284;2023-04-01T08:57:03;9.40;99.90
37460;DHT22;23318;50.966;5.284;2023-04-01T09:03:02;9.50;99.90
37460;DHT22;23318;50.966;5.284;2023-04-01T09:06:00;9.60;99.90
37460;DHT22;23318;50.966;5.284;2023-04-01T09:11:43;9.50;99.90
37460;DHT22;23318;50.966;5.284;2023-04-01T09:14:46;9.60;99.90
37460;DHT22;23318;50.966;5.284;2023-04-01T09:17:20;9.70;99.90
37460;DHT22;23318;50.966;5.284;2023-04-01T09:29:01;9.70;99.90
37460;DHT22;23318;50.966;5.284;2023-04-01T10:06:03;10.10;99.90
37460;DHT22;23318;50.966;5.284;2023-04-01T10:12:00;10.20;99.90
37460;DHT22;23318;50.966;5.284;2023-04-01T10:20:12;10.00;99.90
37460;DHT22;23318;50.966;5.284;2023-04-01T10:29:14;10.20;99.90
37460;DHT22;23318;50.966;5.284;2023-04-01T10:40:24;10.10;99.90
37460;DHT22;23318;50.966;5.284;2023-04-01T10:42:57;10.20;99.90
37460;DHT22;23318;50.966;5.284;2023-04-01T10:54:02;9.90;99.90
37460;DHT22;23318;50.966;5.284;2023-04-01T10:56:58;9.90;99.90
37460;DHT22;23318;50.966;5.284;2023-04-01T11:02:28;9.90;99.90
37460;DHT22;23318;50.966;5.284;2023-04-01T11:29:50;10.00;99.90
37460;DHT22;23318;50.966;5.284;2023-04-01T11:38:14;10.00;99.90
37460;DHT22;23318;50.966;5.284;2023-04-01T11:40:54;10.20;99.90
37460;DHT22;23318;50.966;5.284;2023-04-01T11:45:50;10.10;99.90
37460;DHT22;23318;50.966;5.284;2023-04-01T11:51:04;10.20;99.90
37460;DHT22;23318;50.966;5.284;2023-04-01T11:59:13;10.20;99.90
37460;DHT22;23318;50.966;5.284;2023-04-01T12:07:23;10.10;99.90
37460;DHT22;23318;50.966;5.284;2023-04-01T12:10:17;10.10;99.90
37460;DHT22;23318;50.966;5.284;2023-04-01T12:13:04;10.30;99.90
37460;DHT22;23318;50.966;5.284;2023-04-01T12:21:48;10.40;99.90
37460;DHT22;23318;50.966;5.284;2023-04-01T12:28:06;10.20;99.90
37460;DHT22;23318;50.966;5.284;2023-04-01T12:30:22;10.00;99.90
37460;DHT22;23318;50.966;5.284;2023-04-01T12:33:03;10.10;99.90
37460;DHT22;23318;50.966;5.284;2023-04-01T12:35:49;10.20;99.90
37460;DHT22;23318;50.966;5.284;2023-04-01T13:00:46;10.10;99.90
37460;DHT22;23318;50.966;5.284;2023-04-01T13:09:11;10.30;99.90
37460;DHT22;23318;50.966;5.284;2023-04-01T13:26:07;11.00;99.90
37460;DHT22;23318;50.966;5.284;2023-04-01T13:28:52;10.60;99.90
37460;DHT22;23318;50.966;5.284;2023-04-01T13:34:19;10.40;99.90
37460;DHT22;23318;50.966;5.284;2023-04-01T13:42:22;10.10;99.90
37460;DHT22;23318;50.966;5.284;2023-04-01T13:45:01;10.20;99.90
37460;DHT22;23318;50.966;5.284;2023-04-01T13:50:34;10.00;99.90
37460;DHT22;23318;50.966;5.284;2023-04-01T13:53:16;10.10;99.90
37460;DHT22;23318;50.966;5.284;2023-04-01T14:01:35;10.10;99.90
37460;DHT22;23318;50.966;5.284;2023-04-01T14:04:22;10.10;99.90
37460;DHT22;23318;50.966;5.284;2023-04-01T14:07:18;10.30;99.90
37460;DHT22;23318;50.966;5.284;2023-04-01T14:28:03;10.00;99.90
37460;DHT22;23318;50.966;5.284;2023-04-01T14:37:00;10.00;99.90
37460;DHT22;23318;50.966;5.284;2023-04-01T14:50:53;10.10;99.90
37460;DHT22;23318;50.966;5.284;2023-04-01T14:53:26;10.20;99.90
37460;DHT22;23318;50.966;5.284;2023-04-01T14:58:21;10.20;99.90
37460;DHT22;23318;50.966;5.284;2023-04-01T15:04:15;10.20;99.90
37460;DHT22;23318;50.966;5.284;2023-04-01T15:07:05;10.20;99.90
37460;DHT22;23318;50.966;5.284;2023-04-01T15:09:43;10.30;99.90
37460;DHT22;23318;50.966;5.284;2023-04-01T15:12:33;10.20;99.90
37460;DHT22;23318;50.966;5.284;2023-04-01T15:28:28;10.20;99.90
37460;DHT22;23318;50.966;5.284;2023-04-01T15:42:28;10.40;99.90
37460;DHT22;23318;50.966;5.284;2023-04-01T15:47:58;10.60;99.90
37460;DHT22;23318;50.966;5.284;2023-04-01T15:50:41;10.80;99.90
37460;DHT22;23318;50.966;5.284;2023-04-01T15:56:10;10.60;99.90
37460;DHT22;23318;50.966;5.284;2023-04-01T16:09:39;10.50;99.90
37460;DHT22;23318;50.966;5.284;2023-04-01T16:20:24;10.20;99.90
37460;DHT22;23318;50.966;5.284;2023-04-01T16:23:03;10.10;99.90
37460;DHT22;23318;50.966;5.284;2023-04-01T16:25:36;10.10;99.90
37460;DHT22;23318;50.966;5.284;2023-04-01T16:31:30;10.00;99.90
37460;DHT22;23318;50.966;5.284;2023-04-01T16:37:07;9.80;99.90
37460;DHT22;23318;50.966;5.284;2023-04-01T16:40:11;9.90;99.90
37460;DHT22;23318;50.966;5.284;2023-04-01T16:42:41;9.80;99.90
37460;DHT22;23318;50.966;5.284;2023-04-01T16:48:17;9.70;99.90
37460;DHT22;23318;50.966;5.284;2023-04-01T16:50:58;9.50;99.90
37460;DHT22;23318;50.966;5.284;2023-04-01T16:53:43;9.70;99.90
37460;DHT22;23318;50.966;5.284;2023-04-01T16:56:20;9.50;99.90
37460;DHT22;23318;50.966;5.284;2023-04-01T17:04:44;9.30;99.90
37460;DHT22;23318;50.966;5.284;2023-04-01T17:18:03;9.50;99.90
37460;DHT22;23318;50.966;5.284;2023-04-01T17:23:20;9.20;99.90
37460;DHT22;23318;50.966;5.284;2023-04-01T17:34:35;9.10;99.90
37460;DHT22;23318;50.966;5.284;2023-04-01T17:39:52;9.10;99.90
37460;DHT22;23318;50.966;5.284;2023-04-01T17:42:46;9.00;99.90
37460;DHT22;23318;50.966;5.284;2023-04-01T17:45:24;9.00;99.90
37460;DHT22;23318;50.966;5.284;2023-04-01T17:48:08;9.00;99.90
37460;DHT22;23318;50.966;5.284;2023-04-01T17:53:43;9.00;99.90
37460;DHT22;23318;50.966;5.284;2023-04-01T17:59:32;9.00;99.90
37460;DHT22;23318;50.966;5.284;2023-04-01T18:10:08;8.90;99.90
37460;DHT22;23318;50.966;5.284;2023-04-01T18:12:56;9.00;99.90
37460;DHT22;23318;50.966;5.284;2023-04-01T18:19:02;8.90;99.90
37460;DHT22;23318;50.966;5.284;2023-04-01T18:21:53;9.00;99.90
37460;DHT22;23318;50.966;5.284;2023-04-01T18:24:35;9.10;99.90
37460;DHT22;23318;50.966;5.284;2023-04-01T18:27:30;9.00;99.90
37460;DHT22;23318;50.966;5.284;2023-04-01T18:35:57;9.00;99.90
37460;DHT22;23318;50.966;5.284;2023-04-01T18:38:06;9.10;99.90
37460;DHT22;23318;50.966;5.284;2023-04-01T18:41:12;9.10;99.90
37460;DHT22;23318;50.966;5.284;2023-04-01T18:50:02;9.00;99.90
37460;DHT22;23318;50.966;5.284;2023-04-01T19:06:50;9.20;99.90
37460;DHT22;23318;50.966;5.284;2023-04-01T19:09:31;9.20;99.90
37460;DHT22;23318;50.966;5.284;2023-04-01T19:12:25;9.20;99.90
37460;DHT22;23318;50.966;5.284;2023-04-01T19:15:16;9.20;99.90
37460;DHT22;23318;50.966;5.284;2023-04-01T19:20:31;9.20;99.90
37460;DHT22;23318;50.966;5.284;2023-04-01T19:25:55;9.10;99.90
37460;DHT22;23318;50.966;5.284;2023-04-01T19:31:01;9.10;99.90
37460;DHT22;23318;50.966;5.284;2023-04-01T19:44:59;9.10;99.90
37460;DHT22;23318;50.966;5.284;2023-04-01T19:48:11;9.20;99.90
37460;DHT22;23318;50.966;5.284;2023-04-01T19:50:53;9.30;99.90
37460;DHT22;23318;50.966;5.284;2023-04-01T19:56:21;9.30;99.90
37460;DHT22;23318;50.966;5.284;2023-04-01T20:02:25;9.30;99.90
37460;DHT22;23318;50.966;5.284;2023-04-01T20:13:02;9.30;99.90
37460;DHT22;23318;50.966;5.284;2023-04-01T20:15:32;9.30;99.90
37460;DHT22;23318;50.966;5.284;2023-04-01T20:18:02;9.20;99.90
37460;DHT22;23318;50.966;5.284;2023-04-01T20:20:30;9.20;99.90
37460;DHT22;23318;50.966;5.284;2023-04-01T20:23:23;9.30;99.90
37460;DHT22;23318;50.966;5.284;2023-04-01T20:26:07;9.30;99.90
37460;DHT22;23318;50.966;5.284;2023-04-01T20:31:40;9.40;99.90
37460;DHT22;23318;50.966;5.284;2023-04-01T20:34:31;9.50;99.90
37460;DHT22;23318;50.966;5.284;2023-04-01T20:37:06;9.60;99.90
37460;DHT22;23318;50.966;5.284;2023-04-01T20:45:10;9.50;99.90
37460;DHT22;23318;50.966;5.284;2023-04-01T20:59:24;10.10;99.90
37460;DHT22;23318;50.966;5.284;2023-04-01T21:08:32;9.90;99.90
37460;DHT22;23318;50.966;5.284;2023-04-01T21:13:50;10.00;99.90
37460;DHT22;23318;50.966;5.284;2023-04-01T21:16:36;10.10;99.90
37460;DHT22;23318;50.966;5.284;2023-04-01T21:19:16;10.10;99.90
37460;DHT22;23318;50.966;5.284;2023-04-01T21:33:40;10.80;99.90
37460;DHT22;23318;50.966;5.284;2023-04-01T21:36:30;10.90;99.90
37460;DHT22;23318;50.966;5.284;2023-04-01T21:48:10;10.60;99.90
37460;DHT22;23318;50.966;5.284;2023-04-01T21:56:00;10.80;99.90
37460;DHT22;23318;50.966;5.284;2023-04-01T22:15:05;10.40;99.90
37460;DHT22;23318;50.966;5.284;2023-04-01T22:20:40;10.40;99.90
37460;DHT22;23318;50.966;5.284;2023-04-01T22:23:24;10.30;99.90
37460;DHT22;23318;50.966;5.284;2023-04-01T22:26:06;10.10;99.90
37460;DHT22;23318;50.966;5.284;2023-04-01T22:29:03;9.90;99.90
37460;DHT22;23318;50.966;5.284;2023-04-01T22:32:14;9.80;99.90
37460;DHT22;23318;50.966;5.284;2023-04-01T22:38:25;9.70;99.90
37460;DHT22;23318;50.966;5.284;2023-04-01T22:42:58;9.80;99.90
37460;DHT22;23318;50.966;5.284;2023-04-01T22:45:48;9.80;99.90
37460;DHT22;23318;50.966;5.284;2023-04-01T22:48:35;9.90;99.90
37460;DHT22;23318;50.966;5.284;2023-04-01T22:51:23;10.00;99.90
37460;DHT22;23318;50.966;5.284;2023-04-01T22:54:29;9.90;99.90
37460;DHT22;23318;50.966;5.284;2023-04-01T22:57:05;9.80;99.90
37460;DHT22;23318;50.966;5.284;2023-04-01T22:59:54;9.90;99.90
37460;DHT22;23318;50.966;5.284;2023-04-01T23:02:39;9.90;99.90
37460;DHT22;23318;50.966;5.284;2023-04-01T23:05:10;9.90;99.90
37460;DHT22;23318;50.966;5.284;2023-04-01T23:10:36;9.60;99.90
37460;DHT22;23318;50.966;5.284;2023-04-01T23:13:11;9.60;99.90
37460;DHT22;23318;50.966;5.284;2023-04-01T23:15:38;9.80;99.90
37460;DHT22;23318;50.966;5.284;2023-04-01T23:21:06;9.80;99.90
37460;DHT22;23318;50.966;5.284;2023-04-01T23:28:55;9.30;99.90
37460;DHT22;23318;50.966;5.284;2023-04-01T23:31:41;9.30;99.90
37460;DHT22;23318;50.966;5.284;2023-04-01T23:36:45;9.40;99.90
37460;DHT22;23318;50.966;5.284;2023-04-01T23:39:25;9.40;99.90
37460;DHT22;23318;50.966;5.284;2023-04-01T23:41:55;9.40;99.90
37460;DHT22;23318;50.966;5.284;2023-04-01T23:44:24;9.60;99.90
37460;DHT22;23318;50.966;5.284;2023-04-01T23:46:51;9.50;99.90
37460;DHT22;23318;50.966;5.284;2023-04-01T23:49:21;9.40;99.90
37460;DHT22;23318;50.966;5.284;2023-04-01T23:51:58;9.30;99.90
37460;DHT22;23318;50.966;5.284;2023-04-01T23:56:56;9.10;99.90
37460;DHT22;23318;50.966;5.284;2023-04-01T23:59:28;9.00;99.90
